sensor_id;sensor_type;location;lat;lon;timestamp;pressure;altitude;pressure_sealevel;temperature;humidity
68656;BME280;55638;51.122;13.606;2023-08-24T00:00:25;100432.09;;;15.47;52.09
68656;BME280;55638;51.122;13.606;2023-08-24T00:01:57;100437.72;;;15.45;52.38
68656;BME280;55638;51.122;13.606;2023-08-24T00:03:29;100437.72;;;15.45;52.34
68656;BME280;55638;51.122;13.606;2023-08-24T00:05:01;100437.72;;;15.45;52.36
68656;BME280;55638;51.122;13.606;2023-08-24T00:06:33;100436.84;;;15.45;52.46
68656;BME280;55638;51.122;13.606;2023-08-24T00:08:05;100439.56;;;15.45;52.39
68656;BME280;55638;51.122;13.606;2023-08-24T00:09:37;100433.28;;;15.44;52.36
68656;BME280;55638;51.122;13.606;2023-08-24T00:11:09;100438.72;;;15.44;52.36
68656;BME280;55638;51.122;13.606;2023-08-24T00:12:46;100444.28;;;15.43;52.56
68656;BME280;55638;51.122;13.606;2023-08-24T00:14:18;100443.44;;;15.42;52.52
68656;BME280;55638;51.122;13.606;2023-08-24T00:15:50;100435.28;;;15.42;52.40
68656;BME280;55638;51.122;13.606;2023-08-24T00:17:22;100438.00;;;15.42;52.23
68656;BME280;55638;51.122;13.606;2023-08-24T00:18:55;100441.75;;;15.41;52.39
68656;BME280;55638;51.122;13.606;2023-08-24T00:20:26;100432.72;;;15.41;52.67
68656;BME280;55638;51.122;13.606;2023-08-24T00:21:58;100440.00;;;15.40;52.42
68656;BME280;55638;51.122;13.606;2023-08-24T00:23:30;100426.59;;;15.39;52.48
68656;BME280;55638;51.122;13.606;2023-08-24T00:25:02;100436.63;;;15.38;52.46
68656;BME280;55638;51.122;13.606;2023-08-24T00:26:34;100432.16;;;15.37;52.49
68656;BME280;55638;51.122;13.606;2023-08-24T00:28:07;100432.03;;;15.39;52.71
68656;BME280;55638;51.122;13.606;2023-08-24T00:29:39;100426.75;;;15.37;52.62
68656;BME280;55638;51.122;13.606;2023-08-24T00:31:11;100430.47;;;15.36;52.83
68656;BME280;55638;51.122;13.606;2023-08-24T00:32:43;100428.78;;;15.35;52.81
68656;BME280;55638;51.122;13.606;2023-08-24T00:34:16;100428.91;;;15.34;52.97
68656;BME280;55638;51.122;13.606;2023-08-24T00:35:48;100432.66;;;15.33;52.74
68656;BME280;55638;51.122;13.606;2023-08-24T00:37:19;100427.34;;;15.31;53.02
68656;BME280;55638;51.122;13.606;2023-08-24T00:38:51;100430.06;;;15.31;52.57
68656;BME280;55638;51.122;13.606;2023-08-24T00:40:25;100432.94;;;15.29;53.04
68656;BME280;55638;51.122;13.606;2023-08-24T00:41:57;100431.25;;;15.28;52.88
68656;BME280;55638;51.122;13.606;2023-08-24T00:43:29;100432.25;;;15.27;53.06
68656;BME280;55638;51.122;13.606;2023-08-24T00:45:01;100432.41;;;15.26;52.79
68656;BME280;55638;51.122;13.606;2023-08-24T00:46:34;100429.81;;;15.24;53.33
68656;BME280;55638;51.122;13.606;2023-08-24T00:48:07;100431.69;;;15.24;53.28
68656;BME280;55638;51.122;13.606;2023-08-24T00:49:39;100426.44;;;15.22;52.99
68656;BME280;55638;51.122;13.606;2023-08-24T00:51:11;100423.84;;;15.21;53.10
68656;BME280;55638;51.122;13.606;2023-08-24T00:52:43;100425.88;;;15.19;53.53
68656;BME280;55638;51.122;13.606;2023-08-24T00:54:16;100423.31;;;15.17;53.52
68656;BME280;55638;51.122;13.606;2023-08-24T00:55:49;100426.19;;;15.16;53.35
68656;BME280;55638;51.122;13.606;2023-08-24T00:57:22;100426.19;;;15.16;53.44
68656;BME280;55638;51.122;13.606;2023-08-24T00:58:54;100430.91;;;15.14;53.50
68656;BME280;55638;51.122;13.606;2023-08-24T01:00:27;100431.06;;;15.12;53.68
68656;BME280;55638;51.122;13.606;2023-08-24T01:01:59;100431.06;;;15.12;53.44
68656;BME280;55638;51.122;13.606;2023-08-24T01:03:34;100432.22;;;15.10;53.58
68656;BME280;55638;51.122;13.606;2023-08-24T01:05:06;100423.34;;;15.07;53.55
68656;BME280;55638;51.122;13.606;2023-08-24T01:06:39;100426.25;;;15.06;53.69
68656;BME280;55638;51.122;13.606;2023-08-24T01:08:12;100428.25;;;15.04;53.64
68656;BME280;55638;51.122;13.606;2023-08-24T01:09:47;100435.69;;;15.02;53.53
68656;BME280;55638;51.122;13.606;2023-08-24T01:14:41;100418.28;;;14.95;54.02
68656;BME280;55638;51.122;13.606;2023-08-24T01:16:20;100419.47;;;14.92;54.21
68656;BME280;55638;51.122;13.606;2023-08-24T01:18:02;100412.31;;;14.91;54.02
68656;BME280;55638;51.122;13.606;2023-08-24T01:19:43;100419.78;;;14.89;54.02
68656;BME280;55638;51.122;13.606;2023-08-24T01:21:16;100415.50;;;14.87;54.05
68656;BME280;55638;51.122;13.606;2023-08-24T01:22:57;100412.91;;;14.85;53.94
68656;BME280;55638;51.122;13.606;2023-08-24T01:24:40;100419.53;;;14.82;54.84
68656;BME280;55638;51.122;13.606;2023-08-24T01:26:16;100413.22;;;14.82;54.28
68656;BME280;55638;51.122;13.606;2023-08-24T01:27:49;100409.81;;;14.80;53.84
68656;BME280;55638;51.122;13.606;2023-08-24T01:29:22;100414.38;;;14.79;54.09
68656;BME280;55638;51.122;13.606;2023-08-24T01:30:54;100406.38;;;14.78;53.75
68656;BME280;55638;51.122;13.606;2023-08-24T01:32:26;100405.66;;;14.76;54.17
68656;BME280;55638;51.122;13.606;2023-08-24T01:33:58;100403.28;;;14.73;53.93
68656;BME280;55638;51.122;13.606;2023-08-24T01:35:31;100403.28;;;14.73;54.01
68656;BME280;55638;51.122;13.606;2023-08-24T01:37:06;100399.84;;;14.71;54.13
68656;BME280;55638;51.122;13.606;2023-08-24T01:38:39;100407.28;;;14.69;54.39
68656;BME280;55638;51.122;13.606;2023-08-24T01:40:21;100402.16;;;14.66;55.00
68656;BME280;55638;51.122;13.606;2023-08-24T01:41:58;100404.88;;;14.66;54.73
68656;BME280;55638;51.122;13.606;2023-08-24T01:43:32;100403.16;;;14.65;54.31
68656;BME280;55638;51.122;13.606;2023-08-24T01:45:11;100402.41;;;14.62;54.51
68656;BME280;55638;51.122;13.606;2023-08-24T01:46:45;100407.16;;;14.60;54.54
68656;BME280;55638;51.122;13.606;2023-08-24T01:48:19;100410.00;;;14.59;54.60
68656;BME280;55638;51.122;13.606;2023-08-24T01:49:51;100408.47;;;14.56;54.77
68656;BME280;55638;51.122;13.606;2023-08-24T01:51:24;100414.88;;;14.55;54.72
68656;BME280;55638;51.122;13.606;2023-08-24T01:52:57;100414.19;;;14.53;54.71
68656;BME280;55638;51.122;13.606;2023-08-24T01:54:30;100412.75;;;14.49;54.90
68656;BME280;55638;51.122;13.606;2023-08-24T01:56:10;100413.03;;;14.46;55.41
68656;BME280;55638;51.122;13.606;2023-08-24T01:57:43;100414.22;;;14.44;55.00
68656;BME280;55638;51.122;13.606;2023-08-24T01:59:14;100417.06;;;14.42;54.89
68656;BME280;55638;51.122;13.606;2023-08-24T02:00:46;100419.22;;;14.38;55.05
68656;BME280;55638;51.122;13.606;2023-08-24T02:02:18;100422.22;;;14.35;54.98
68656;BME280;55638;51.122;13.606;2023-08-24T02:03:50;100420.53;;;14.34;54.92
68656;BME280;55638;51.122;13.606;2023-08-24T02:05:22;100412.69;;;14.31;55.30
68656;BME280;55638;51.122;13.606;2023-08-24T02:06:59;100404.69;;;14.30;54.67
68656;BME280;55638;51.122;13.606;2023-08-24T02:08:31;100405.84;;;14.27;55.00
68656;BME280;55638;51.122;13.606;2023-08-24T02:10:03;100401.56;;;14.25;55.21
68656;BME280;55638;51.122;13.606;2023-08-24T02:11:35;100407.13;;;14.23;55.32
68656;BME280;55638;51.122;13.606;2023-08-24T02:13:07;100399.28;;;14.20;55.54
68656;BME280;55638;51.122;13.606;2023-08-24T02:14:39;100409.28;;;14.20;55.64
68656;BME280;55638;51.122;13.606;2023-08-24T02:16:11;100403.16;;;14.18;55.72
68656;BME280;55638;51.122;13.606;2023-08-24T02:17:44;100406.84;;;14.17;55.54
68656;BME280;55638;51.122;13.606;2023-08-24T02:19:16;100402.44;;;14.15;55.50
68656;BME280;55638;51.122;13.606;2023-08-24T02:20:48;100406.28;;;14.13;55.41
68656;BME280;55638;51.122;13.606;2023-08-24T02:22:21;100403.75;;;14.11;55.70
68656;BME280;55638;51.122;13.606;2023-08-24T02:23:53;100405.72;;;14.09;55.39
68656;BME280;55638;51.122;13.606;2023-08-24T02:25:25;100396.88;;;14.07;55.61
68656;BME280;55638;51.122;13.606;2023-08-24T02:26:57;100398.06;;;14.05;55.70
68656;BME280;55638;51.122;13.606;2023-08-24T02:28:29;100400.03;;;14.03;56.01
68656;BME280;55638;51.122;13.606;2023-08-24T02:30:01;100394.78;;;14.01;55.83
68656;BME280;55638;51.122;13.606;2023-08-24T02:31:34;100392.19;;;14.00;56.14
68656;BME280;55638;51.122;13.606;2023-08-24T02:33:06;100395.91;;;13.99;55.82
68656;BME280;55638;51.122;13.606;2023-08-24T02:34:39;100397.78;;;13.98;55.89
68656;BME280;55638;51.122;13.606;2023-08-24T02:36:12;100391.78;;;13.95;56.17
68656;BME280;55638;51.122;13.606;2023-08-24T02:37:44;100390.22;;;13.92;56.24
68656;BME280;55638;51.122;13.606;2023-08-24T02:39:16;100391.22;;;13.91;56.31
68656;BME280;55638;51.122;13.606;2023-08-24T02:40:48;100390.53;;;13.89;56.26
68656;BME280;55638;51.122;13.606;2023-08-24T02:42:20;100401.47;;;13.87;56.58
68656;BME280;55638;51.122;13.606;2023-08-24T02:43:52;100396.22;;;13.86;56.58
68656;BME280;55638;51.122;13.606;2023-08-24T02:45:24;100390.09;;;13.84;56.56
68656;BME280;55638;51.122;13.606;2023-08-24T02:46:57;100399.22;;;13.83;56.82
68656;BME280;55638;51.122;13.606;2023-08-24T02:48:30;100397.53;;;13.82;56.78
68656;BME280;55638;51.122;13.606;2023-08-24T02:50:02;100393.94;;;13.81;56.67
68656;BME280;55638;51.122;13.606;2023-08-24T02:51:35;100384.25;;;13.79;56.62
68656;BME280;55638;51.122;13.606;2023-08-24T02:53:08;100391.50;;;13.78;56.83
68656;BME280;55638;51.122;13.606;2023-08-24T02:54:40;100396.06;;;13.78;56.77
68656;BME280;55638;51.122;13.606;2023-08-24T02:56:12;100395.22;;;13.77;56.97
68656;BME280;55638;51.122;13.606;2023-08-24T02:57:44;100384.56;;;13.76;57.07
68656;BME280;55638;51.122;13.606;2023-08-24T02:59:16;100388.22;;;13.75;57.23
68656;BME280;55638;51.122;13.606;2023-08-24T03:00:48;100388.22;;;13.75;57.06
68656;BME280;55638;51.122;13.606;2023-08-24T03:02:19;100393.81;;;13.73;57.33
68656;BME280;55638;51.122;13.606;2023-08-24T03:03:52;100395.66;;;13.73;57.16
68656;BME280;55638;51.122;13.606;2023-08-24T03:05:24;100391.19;;;13.72;57.15
68656;BME280;55638;51.122;13.606;2023-08-24T03:06:56;100391.19;;;13.72;57.19
68656;BME280;55638;51.122;13.606;2023-08-24T03:08:29;100398.47;;;13.71;57.31
68656;BME280;55638;51.122;13.606;2023-08-24T03:10:02;100390.50;;;13.69;57.24
68656;BME280;55638;51.122;13.606;2023-08-24T03:11:34;100391.47;;;13.68;57.40
68656;BME280;55638;51.122;13.606;2023-08-24T03:13:06;100397.91;;;13.67;57.43
68656;BME280;55638;51.122;13.606;2023-08-24T03:14:39;100396.22;;;13.66;57.50
68656;BME280;55638;51.122;13.606;2023-08-24T03:16:12;100394.50;;;13.65;57.48
68656;BME280;55638;51.122;13.606;2023-08-24T03:17:44;100392.66;;;13.66;57.72
68656;BME280;55638;51.122;13.606;2023-08-24T03:19:16;100396.22;;;13.66;57.61
68656;BME280;55638;51.122;13.606;2023-08-24T03:20:50;100382.78;;;13.65;57.73
68656;BME280;55638;51.122;13.606;2023-08-24T03:22:22;100386.38;;;13.65;57.65
68656;BME280;55638;51.122;13.606;2023-08-24T03:23:54;100387.34;;;13.64;57.62
68656;BME280;55638;51.122;13.606;2023-08-24T03:25:26;100390.06;;;13.64;57.79
68656;BME280;55638;51.122;13.606;2023-08-24T03:26:58;100386.50;;;13.64;57.77
68656;BME280;55638;51.122;13.606;2023-08-24T03:28:30;100382.94;;;13.63;58.01
68656;BME280;55638;51.122;13.606;2023-08-24T03:30:04;100380.09;;;13.65;58.09
68656;BME280;55638;51.122;13.606;2023-08-24T03:31:36;100381.94;;;13.64;57.87
68656;BME280;55638;51.122;13.606;2023-08-24T03:33:08;100383.69;;;13.65;57.88
68656;BME280;55638;51.122;13.606;2023-08-24T03:34:40;100391.81;;;13.65;58.06
68656;BME280;55638;51.122;13.606;2023-08-24T03:36:12;100390.06;;;13.64;58.20
68656;BME280;55638;51.122;13.606;2023-08-24T03:37:44;100390.91;;;13.65;57.97
68656;BME280;55638;51.122;13.606;2023-08-24T03:39:16;100390.06;;;13.64;58.33
68656;BME280;55638;51.122;13.606;2023-08-24T03:40:48;100391.81;;;13.65;58.18
68656;BME280;55638;51.122;13.606;2023-08-24T03:42:20;100386.38;;;13.65;58.22
68656;BME280;55638;51.122;13.606;2023-08-24T03:43:52;100388.22;;;13.65;58.20
68656;BME280;55638;51.122;13.606;2023-08-24T03:45:25;100388.09;;;13.66;58.11
68656;BME280;55638;51.122;13.606;2023-08-24T03:46:57;100382.78;;;13.65;58.31
68656;BME280;55638;51.122;13.606;2023-08-24T03:48:29;100387.22;;;13.66;58.49
68656;BME280;55638;51.122;13.606;2023-08-24T03:50:02;100387.06;;;13.67;58.28
68656;BME280;55638;51.122;13.606;2023-08-24T03:51:34;100381.66;;;13.67;58.28
68656;BME280;55638;51.122;13.606;2023-08-24T03:53:06;100384.25;;;13.69;58.22
68656;BME280;55638;51.122;13.606;2023-08-24T03:54:38;100385.09;;;13.69;58.21
68656;BME280;55638;51.122;13.606;2023-08-24T03:56:10;100383.34;;;13.68;58.50
68656;BME280;55638;51.122;13.606;2023-08-24T03:57:42;100391.34;;;13.70;58.48
68656;BME280;55638;51.122;13.606;2023-08-24T03:59:14;100395.75;;;13.71;58.15
68656;BME280;55638;51.122;13.606;2023-08-24T04:00:47;100387.63;;;13.71;58.45
68656;BME280;55638;51.122;13.606;2023-08-24T04:02:19;100380.34;;;13.72;58.38
68656;BME280;55638;51.122;13.606;2023-08-24T04:03:51;100386.69;;;13.72;58.12
68656;BME280;55638;51.122;13.606;2023-08-24T04:05:23;100382.13;;;13.73;58.37
68656;BME280;55638;51.122;13.606;2023-08-24T04:06:57;100382.13;;;13.73;58.23
68656;BME280;55638;51.122;13.606;2023-08-24T04:08:29;100385.69;;;13.73;58.29
68656;BME280;55638;51.122;13.606;2023-08-24T04:10:01;100383.97;;;13.72;58.47
68656;BME280;55638;51.122;13.606;2023-08-24T04:11:33;100381.28;;;13.72;58.29
68656;BME280;55638;51.122;13.606;2023-08-24T04:13:05;100381.28;;;13.72;58.50
68656;BME280;55638;51.122;13.606;2023-08-24T04:14:37;100380.34;;;13.72;58.48
68656;BME280;55638;51.122;13.606;2023-08-24T04:16:09;100382.13;;;13.73;58.72
68656;BME280;55638;51.122;13.606;2023-08-24T04:17:41;100379.41;;;13.73;58.67
68656;BME280;55638;51.122;13.606;2023-08-24T04:19:15;100386.69;;;13.72;58.74
68656;BME280;55638;51.122;13.606;2023-08-24T04:20:47;100382.97;;;13.73;58.72
68656;BME280;55638;51.122;13.606;2023-08-24T04:22:19;100385.69;;;13.73;58.64
68656;BME280;55638;51.122;13.606;2023-08-24T04:23:50;100385.53;;;13.75;58.60
68656;BME280;55638;51.122;13.606;2023-08-24T04:25:22;100381.00;;;13.75;58.68
68656;BME280;55638;51.122;13.606;2023-08-24T04:26:54;100379.13;;;13.76;58.50
68656;BME280;55638;51.122;13.606;2023-08-24T04:28:26;100381.84;;;13.76;58.71
68656;BME280;55638;51.122;13.606;2023-08-24T04:29:59;100384.38;;;13.77;58.81
68656;BME280;55638;51.122;13.606;2023-08-24T04:31:31;100388.78;;;13.78;58.74
68656;BME280;55638;51.122;13.606;2023-08-24T04:33:03;100380.66;;;13.78;58.89
68656;BME280;55638;51.122;13.606;2023-08-24T04:34:35;100392.38;;;13.79;58.63
68656;BME280;55638;51.122;13.606;2023-08-24T04:36:07;100393.25;;;13.79;58.68
68656;BME280;55638;51.122;13.606;2023-08-24T04:37:40;100391.38;;;13.80;58.94
68656;BME280;55638;51.122;13.606;2023-08-24T04:39:12;100395.78;;;13.81;58.72
68656;BME280;55638;51.122;13.606;2023-08-24T04:40:54;100397.66;;;13.80;59.53
68656;BME280;55638;51.122;13.606;2023-08-24T04:42:26;100392.09;;;13.82;58.98
68656;BME280;55638;51.122;13.606;2023-08-24T04:43:58;100395.50;;;13.84;58.80
68656;BME280;55638;51.122;13.606;2023-08-24T04:45:30;100388.22;;;13.84;59.08
68656;BME280;55638;51.122;13.606;2023-08-24T04:47:02;100396.22;;;13.86;59.07
68656;BME280;55638;51.122;13.606;2023-08-24T04:48:34;100403.22;;;13.88;58.82
68656;BME280;55638;51.122;13.606;2023-08-24T04:50:07;100393.22;;;13.89;59.23
68656;BME280;55638;51.122;13.606;2023-08-24T04:51:39;100393.06;;;13.90;59.06
68656;BME280;55638;51.122;13.606;2023-08-24T04:53:16;100398.34;;;13.92;59.29
68656;BME280;55638;51.122;13.606;2023-08-24T04:54:48;100388.22;;;13.94;58.86
68656;BME280;55638;51.122;13.606;2023-08-24T04:56:20;100391.63;;;13.96;58.96
68656;BME280;55638;51.122;13.606;2023-08-24T04:57:52;100390.63;;;13.97;58.96
68656;BME280;55638;51.122;13.606;2023-08-24T04:59:24;100394.91;;;14.00;59.11
68656;BME280;55638;51.122;13.606;2023-08-24T05:00:56;100386.66;;;14.01;59.30
68656;BME280;55638;51.122;13.606;2023-08-24T05:02:28;100386.34;;;14.04;59.30
68656;BME280;55638;51.122;13.606;2023-08-24T05:04:00;100386.19;;;14.06;59.15
68656;BME280;55638;51.122;13.606;2023-08-24T05:05:33;100393.88;;;14.10;59.10
68656;BME280;55638;51.122;13.606;2023-08-24T05:07:05;100397.31;;;14.12;58.96
68656;BME280;55638;51.122;13.606;2023-08-24T05:08:37;100394.31;;;14.15;59.02
68656;BME280;55638;51.122;13.606;2023-08-24T05:10:13;100394.16;;;14.17;59.29
68656;BME280;55638;51.122;13.606;2023-08-24T05:11:44;100392.88;;;14.21;58.98
68656;BME280;55638;51.122;13.606;2023-08-24T05:13:16;100388.13;;;14.23;58.97
68656;BME280;55638;51.122;13.606;2023-08-24T05:14:48;100387.84;;;14.26;59.14
68656;BME280;55638;51.122;13.606;2023-08-24T05:16:20;100385.69;;;14.30;59.16
68656;BME280;55638;51.122;13.606;2023-08-24T05:17:52;100390.81;;;14.33;59.17
68656;BME280;55638;51.122;13.606;2023-08-24T05:19:28;100384.25;;;14.35;59.22
68656;BME280;55638;51.122;13.606;2023-08-24T05:21:00;100387.53;;;14.39;58.98
68656;BME280;55638;51.122;13.606;2023-08-24T05:22:32;100383.50;;;14.43;59.16
68656;BME280;55638;51.122;13.606;2023-08-24T05:24:04;100386.81;;;14.47;59.18
68656;BME280;55638;51.122;13.606;2023-08-24T05:25:36;100387.34;;;14.50;58.80
68656;BME280;55638;51.122;13.606;2023-08-24T05:27:08;100383.34;;;14.54;58.86
68656;BME280;55638;51.122;13.606;2023-08-24T05:28:40;100378.63;;;14.56;59.20
68656;BME280;55638;51.122;13.606;2023-08-24T05:30:12;100391.56;;;14.62;59.37
68656;BME280;55638;51.122;13.606;2023-08-24T05:31:44;100382.00;;;14.68;59.88
68656;BME280;55638;51.122;13.606;2023-08-24T05:33:16;100387.38;;;14.78;60.95
68656;BME280;55638;51.122;13.606;2023-08-24T05:34:48;100384.31;;;14.91;61.42
68656;BME280;55638;51.122;13.606;2023-08-24T05:36:20;100394.22;;;15.10;61.73
68656;BME280;55638;51.122;13.606;2023-08-24T05:37:52;100386.78;;;15.29;62.30
68656;BME280;55638;51.122;13.606;2023-08-24T05:39:24;100392.16;;;15.57;62.33
68656;BME280;55638;51.122;13.606;2023-08-24T05:40:56;100387.47;;;15.85;62.35
68656;BME280;55638;51.122;13.606;2023-08-24T05:42:28;100377.84;;;16.17;61.91
68656;BME280;55638;51.122;13.606;2023-08-24T05:44:01;100379.78;;;16.51;61.94
68656;BME280;55638;51.122;13.606;2023-08-24T05:45:33;100380.59;;;16.85;61.34
68656;BME280;55638;51.122;13.606;2023-08-24T05:47:05;100388.41;;;17.23;60.67
68656;BME280;55638;51.122;13.606;2023-08-24T05:48:37;100385.56;;;17.57;59.94
68656;BME280;55638;51.122;13.606;2023-08-24T05:50:09;100378.41;;;17.89;58.80
68656;BME280;55638;51.122;13.606;2023-08-24T05:51:43;100384.88;;;18.20;57.67
68656;BME280;55638;51.122;13.606;2023-08-24T05:53:15;100378.31;;;18.46;56.81
68656;BME280;55638;51.122;13.606;2023-08-24T05:54:47;100373.84;;;18.69;56.12
68656;BME280;55638;51.122;13.606;2023-08-24T05:56:19;100384.34;;;18.89;56.19
68656;BME280;55638;51.122;13.606;2023-08-24T05:57:51;100382.88;;;19.09;56.08
68656;BME280;55638;51.122;13.606;2023-08-24T05:59:23;100379.69;;;19.29;55.60
68656;BME280;55638;51.122;13.606;2023-08-24T06:00:57;100381.13;;;19.47;55.15
68656;BME280;55638;51.122;13.606;2023-08-24T06:02:29;100387.59;;;19.69;55.57
68656;BME280;55638;51.122;13.606;2023-08-24T06:04:01;100389.66;;;19.90;54.28
68656;BME280;55638;51.122;13.606;2023-08-24T06:05:33;100386.19;;;20.11;54.36
68656;BME280;55638;51.122;13.606;2023-08-24T06:07:05;100377.31;;;20.32;53.44
68656;BME280;55638;51.122;13.606;2023-08-24T06:08:37;100382.22;;;20.52;52.73
68656;BME280;55638;51.122;13.606;2023-08-24T06:10:09;100375.88;;;20.66;51.82
68656;BME280;55638;51.122;13.606;2023-08-24T06:11:41;100371.63;;;20.78;51.42
68656;BME280;55638;51.122;13.606;2023-08-24T06:13:13;100369.66;;;20.87;50.89
68656;BME280;55638;51.122;13.606;2023-08-24T06:14:45;100366.34;;;20.92;50.58
68656;BME280;55638;51.122;13.606;2023-08-24T06:16:17;100372.97;;;20.97;50.68
68656;BME280;55638;51.122;13.606;2023-08-24T06:17:50;100365.59;;;20.98;50.06
68656;BME280;55638;51.122;13.606;2023-08-24T06:19:23;100366.44;;;20.98;50.07
68656;BME280;55638;51.122;13.606;2023-08-24T06:20:55;100371.91;;;20.98;50.04
68656;BME280;55638;51.122;13.606;2023-08-24T06:22:27;100364.75;;;20.97;50.09
68656;BME280;55638;51.122;13.606;2023-08-24T06:23:59;100366.81;;;20.95;49.81
68656;BME280;55638;51.122;13.606;2023-08-24T06:25:33;100362.56;;;20.93;49.75
68656;BME280;55638;51.122;13.606;2023-08-24T06:27:05;100352.81;;;20.90;49.89
68656;BME280;55638;51.122;13.606;2023-08-24T06:28:37;100362.09;;;20.89;49.19
68656;BME280;55638;51.122;13.606;2023-08-24T06:30:09;100365.41;;;20.84;49.47
68656;BME280;55638;51.122;13.606;2023-08-24T06:31:42;100357.38;;;20.83;49.18
68656;BME280;55638;51.122;13.606;2023-08-24T06:33:16;100363.06;;;20.81;48.78
68656;BME280;55638;51.122;13.606;2023-08-24T06:34:49;100367.00;;;20.79;49.27
68656;BME280;55638;51.122;13.606;2023-08-24T06:36:20;100359.81;;;20.78;49.29
68656;BME280;55638;51.122;13.606;2023-08-24T06:37:52;100355.38;;;20.77;49.05
68656;BME280;55638;51.122;13.606;2023-08-24T06:39:25;100361.91;;;20.76;49.35
68656;BME280;55638;51.122;13.606;2023-08-24T06:40:58;100358.31;;;20.75;49.30
68656;BME280;55638;51.122;13.606;2023-08-24T06:42:30;100361.22;;;20.74;49.04
68656;BME280;55638;51.122;13.606;2023-08-24T06:44:02;100357.63;;;20.73;49.48
68656;BME280;55638;51.122;13.606;2023-08-24T06:45:34;100347.53;;;20.74;49.09
68656;BME280;55638;51.122;13.606;2023-08-24T06:47:06;100358.47;;;20.74;48.68
68656;BME280;55638;51.122;13.606;2023-08-24T06:48:38;100360.22;;;20.75;49.07
68656;BME280;55638;51.122;13.606;2023-08-24T06:50:10;100358.97;;;20.77;49.11
68656;BME280;55638;51.122;13.606;2023-08-24T06:51:42;100360.00;;;20.76;48.77
68656;BME280;55638;51.122;13.606;2023-08-24T06:53:15;100364.25;;;20.79;49.10
68656;BME280;55638;51.122;13.606;2023-08-24T06:54:46;100362.34;;;20.79;49.25
68656;BME280;55638;51.122;13.606;2023-08-24T06:56:25;100364.09;;;20.80;49.13
68656;BME280;55638;51.122;13.606;2023-08-24T06:57:57;100361.84;;;20.84;49.21
68656;BME280;55638;51.122;13.606;2023-08-24T06:59:29;100368.78;;;20.86;49.38
68656;BME280;55638;51.122;13.606;2023-08-24T07:01:00;100375.78;;;20.89;49.07
68656;BME280;55638;51.122;13.606;2023-08-24T07:02:37;100375.41;;;20.92;49.12
68656;BME280;55638;51.122;13.606;2023-08-24T07:04:09;100376.06;;;20.94;48.86
68656;BME280;55638;51.122;13.606;2023-08-24T07:05:41;100364.75;;;20.97;49.14
68656;BME280;55638;51.122;13.606;2023-08-24T07:07:13;100368.97;;;21.00;49.01
68656;BME280;55638;51.122;13.606;2023-08-24T07:08:45;100369.44;;;21.03;49.19
68656;BME280;55638;51.122;13.606;2023-08-24T07:10:17;100369.06;;;21.06;48.78
68656;BME280;55638;51.122;13.606;2023-08-24T07:11:49;100366.13;;;21.08;48.66
68656;BME280;55638;51.122;13.606;2023-08-24T07:13:21;100371.00;;;21.13;48.96
68656;BME280;55638;51.122;13.606;2023-08-24T07:14:53;100374.03;;;21.18;48.62
68656;BME280;55638;51.122;13.606;2023-08-24T07:16:25;100373.44;;;21.22;48.64
68656;BME280;55638;51.122;13.606;2023-08-24T07:17:57;100368.41;;;21.26;48.99
68656;BME280;55638;51.122;13.606;2023-08-24T07:19:29;100363.03;;;21.32;48.50
68656;BME280;55638;51.122;13.606;2023-08-24T07:21:01;100360.53;;;21.38;49.02
68656;BME280;55638;51.122;13.606;2023-08-24T07:22:33;100351.75;;;21.42;48.84
68656;BME280;55638;51.122;13.606;2023-08-24T07:24:05;100349.94;;;21.49;48.19
68656;BME280;55638;51.122;13.606;2023-08-24T07:25:37;100358.41;;;21.54;48.18
68656;BME280;55638;51.122;13.606;2023-08-24T07:27:09;100354.69;;;21.62;48.29
68656;BME280;55638;51.122;13.606;2023-08-24T07:28:41;100354.09;;;21.67;47.92
68656;BME280;55638;51.122;13.606;2023-08-24T07:30:13;100348.66;;;21.73;48.12
68656;BME280;55638;51.122;13.606;2023-08-24T07:32:02;100346.81;;;21.80;47.76
68656;BME280;55638;51.122;13.606;2023-08-24T07:33:35;100346.25;;;21.85;47.63
68656;BME280;55638;51.122;13.606;2023-08-24T07:35:07;100341.66;;;21.92;47.61
68656;BME280;55638;51.122;13.606;2023-08-24T07:36:39;100347.19;;;21.99;47.92
68656;BME280;55638;51.122;13.606;2023-08-24T07:38:11;100346.19;;;22.07;47.90
68656;BME280;55638;51.122;13.606;2023-08-24T07:39:43;100353.25;;;22.16;47.70
68656;BME280;55638;51.122;13.606;2023-08-24T07:41:15;100358.59;;;22.24;47.55
68656;BME280;55638;51.122;13.606;2023-08-24T07:42:51;100356.34;;;22.34;47.22
68656;BME280;55638;51.122;13.606;2023-08-24T07:44:25;100355.13;;;22.43;47.51
68656;BME280;55638;51.122;13.606;2023-08-24T07:45:56;100354.94;;;22.52;47.26
68656;BME280;55638;51.122;13.606;2023-08-24T07:47:28;100356.47;;;22.61;47.07
68656;BME280;55638;51.122;13.606;2023-08-24T07:49:00;100351.03;;;22.67;46.63
68656;BME280;55638;51.122;13.606;2023-08-24T07:50:32;100364.59;;;22.76;46.48
68656;BME280;55638;51.122;13.606;2023-08-24T07:52:04;100356.41;;;22.82;46.59
68656;BME280;55638;51.122;13.606;2023-08-24T07:53:36;100358.97;;;22.90;46.37
68656;BME280;55638;51.122;13.606;2023-08-24T07:55:08;100355.00;;;23.00;46.45
68656;BME280;55638;51.122;13.606;2023-08-24T07:56:44;100360.28;;;23.08;46.57
68656;BME280;55638;51.122;13.606;2023-08-24T07:58:16;100348.06;;;23.17;46.43
68656;BME280;55638;51.122;13.606;2023-08-24T07:59:48;100352.13;;;23.28;46.15
68656;BME280;55638;51.122;13.606;2023-08-24T08:01:20;100347.53;;;23.41;46.63